Terminal Aerodrome Forecast
Issued by NWS

Home | Current Version | Previous Version | Text Only | Print | Product List | Glossary On
Versions: 1 2 3 4 5 6 7 8 9 10 11 12 13 14 15 16 17 18 19 20
000
FTUS43 KSGF 052000 AAA
TAFBBG
TAF AMD
KBBG 052013Z 0520/0618 16012KT P6SM VCTS SCT030CB SCT250
      TEMPO 0520/0522 16015G25KT 1SM +TSRA SCT015 BKN025CB
     FM052200 15008KT P6SM SCT030 SCT250
     FM060000 15006KT P6SM SCT250
     FM060600 VRB03KT 4SM BR SKC WS017/22035KT
     FM061500 20013KT P6SM BKN050=

USA.gov is the U.S. government's official web portal to all federal, state and local government web resources and services.